Time;durP1;ratioP1;P1;durP2;ratioP2;P2;SDS_P1;SDS_P2;PMS_P1;PMS_P2;Temp;Humidity;BMP_temperature;BMP_pressure;BME280_temperature;BME280_humidity;BME280_pressure;Samples;Min_cycle;Max_cycle;Signal;HPM_P1;HPM_P2
2022/04/08 00:00:19;;;;;;;9.98;2.30;;;;;;;9.85;56.88;98855.50;687670;28;1084;-79
2022/04/08 00:00:39;;;;;;;8.60;2.20;;;;;;;9.91;56.20;98857.28;690337;28;1236;-79
2022/04/08 00:01:01;;;;;;;8.30;2.03;;;;;;;9.78;56.50;98848.59;690194;28;1118;-79
2022/04/08 00:01:24;;;;;;;6.75;1.80;;;;;;;9.82;56.61;98860.72;692988;28;1332;-82
2022/04/08 00:01:44;;;;;;;6.25;1.90;;;;;;;9.87;56.87;98863.34;693963;28;775;-82
2022/04/08 00:02:05;;;;;;;5.90;2.03;;;;;;;10.00;56.51;98874.63;693500;28;1223;-82
2022/04/08 00:02:26;;;;;;;5.87;2.30;;;;;;;9.96;56.20;98854.66;693131;28;953;-79
2022/04/08 00:02:48;;;;;;;5.28;2.30;;;;;;;9.94;56.49;98848.59;690263;28;1611;-79
2022/04/08 00:03:09;;;;;;;5.10;2.17;;;;;;;10.21;56.20;98862.47;685011;28;1275;-79
2022/04/08 00:03:30;;;;;;;3.65;1.90;;;;;;;10.23;55.69;98869.44;687598;28;1006;-79
2022/04/08 00:03:52;;;;;;;4.10;2.00;;;;;;;10.05;55.90;98867.69;687391;28;1877;-79
2022/04/08 00:04:13;;;;;;;3.38;2.05;;;;;;;9.96;56.17;98873.75;683894;28;1458;-79
2022/04/08 00:04:33;;;;;;;3.33;1.90;;;;;;;9.81;56.46;98871.13;682450;29;1303;-80
2022/04/08 00:04:56;;;;;;;2.72;1.70;;;;;;;9.83;56.50;98864.22;682211;29;1030;-80
2022/04/08 00:05:16;;;;;;;5.18;1.92;;;;;;;9.83;56.44;98852.03;682216;29;1052;-80
2022/04/08 00:05:38;;;;;;;6.20;2.00;;;;;;;9.92;56.58;98868.53;690376;28;1320;-79
2022/04/08 00:05:58;;;;;;;5.72;2.10;;;;;;;9.98;56.28;98856.41;691801;28;1546;-79
2022/04/08 00:06:20;;;;;;;4.83;1.80;;;;;;;9.93;56.09;98873.75;690221;28;1267;-79
2022/04/08 00:06:41;;;;;;;5.20;1.98;;;;;;;9.87;56.54;98859.00;685103;28;859;-79
2022/04/08 00:07:01;;;;;;;4.77;1.90;;;;;;;10.27;55.63;98867.69;684243;28;1585;-79
2022/04/08 00:07:22;;;;;;;5.57;2.05;;;;;;;10.23;55.34;98853.81;687824;28;1906;-79
2022/04/08 00:07:43;;;;;;;4.97;2.00;;;;;;;10.56;54.77;98864.13;690253;28;1900;-79
2022/04/08 00:08:04;;;;;;;6.32;2.10;;;;;;;10.72;54.42;98875.41;686894;28;1397;-80
2022/04/08 00:08:25;;;;;;;5.28;1.90;;;;;;;10.67;54.22;98862.38;684630;28;1147;-80
2022/04/08 00:08:46;;;;;;;4.87;2.03;;;;;;;10.62;54.29;98863.28;690346;28;1067;-79
2022/04/08 00:09:06;;;;;;;3.42;1.90;;;;;;;10.69;53.94;98865.84;697899;28;1911;-80
2022/04/08 00:09:27;;;;;;;3.90;1.97;;;;;;;10.47;54.42;98864.19;692726;28;1043;-79
2022/04/08 00:09:48;;;;;;;4.70;1.77;;;;;;;10.74;54.33;98883.25;695400;28;1670;-79
2022/04/08 00:10:09;;;;;;;5.43;1.80;;;;;;;10.63;54.12;98884.13;691398;28;1075;-80
2022/04/08 00:10:29;;;;;;;4.70;1.90;;;;;;;10.62;54.21;98874.56;687594;28;1153;-80
2022/04/08 00:10:50;;;;;;;3.80;2.13;;;;;;;10.80;53.77;98862.34;687147;28;1252;-79
2022/04/08 00:11:11;;;;;;;3.50;2.33;;;;;;;10.52;54.08;98867.66;682130;28;1720;-79
2022/04/08 00:11:31;;;;;;;4.07;2.33;;;;;;;10.24;54.55;98873.78;682411;29;1078;-80
2022/04/08 00:11:52;;;;;;;4.95;2.50;;;;;;;9.99;55.26;98862.47;687468;28;1025;-80
2022/04/08 00:12:13;;;;;;;4.30;2.40;;;;;;;10.00;55.50;98869.41;687960;28;1910;-79
2022/04/08 00:12:33;;;;;;;4.35;2.28;;;;;;;10.17;55.40;98863.31;695693;28;1144;-79
2022/04/08 00:12:54;;;;;;;4.32;2.00;;;;;;;10.17;55.15;98858.09;695150;28;1215;-79
2022/04/08 00:13:15;;;;;;;5.00;2.00;;;;;;;10.04;55.34;98880.69;690182;28;1180;-79
2022/04/08 00:13:35;;;;;;;4.40;2.15;;;;;;;10.34;55.26;98890.28;690220;28;1459;-79
2022/04/08 00:13:56;;;;;;;5.20;2.25;;;;;;;10.49;54.91;98875.47;683326;28;911;-79
2022/04/08 00:14:18;;;;;;;4.70;2.13;;;;;;;10.17;55.19;98865.91;684947;28;1073;-80
2022/04/08 00:14:39;;;;;;;6.07;2.30;;;;;;;10.07;55.39;98886.78;690346;28;1148;-79
2022/04/08 00:15:00;;;;;;;4.25;2.28;;;;;;;10.06;55.83;98889.41;686236;28;1151;-79
2022/04/08 00:15:21;;;;;;;4.70;2.40;;;;;;;9.94;55.85;98875.50;687578;28;1207;-79
2022/04/08 00:15:41;;;;;;;4.63;2.30;;;;;;;10.06;55.78;98874.63;687735;28;807;-79
2022/04/08 00:16:02;;;;;;;6.60;2.20;;;;;;;9.97;55.85;98905.91;689201;28;1193;-79
2022/04/08 00:16:22;;;;;;;5.30;2.40;;;;;;;9.87;55.84;98879.84;684981;28;1059;-80
2022/04/08 00:16:43;;;;;;;4.57;2.50;;;;;;;9.81;55.97;98872.03;685129;28;831;-79
2022/04/08 00:17:04;;;;;;;3.33;2.77;;;;;;;9.76;56.19;98870.28;687497;28;1159;-80
2022/04/08 00:17:25;;;;;;;4.50;2.70;;;;;;;9.76;56.33;98905.00;689828;28;1904;-79
2022/04/08 00:17:46;;;;;;;5.75;2.50;;;;;;;9.72;56.44;98885.03;689908;28;1378;-79
2022/04/08 00:18:08;;;;;;;5.40;2.40;;;;;;;9.83;56.44;98892.88;689877;28;1729;-79
2022/04/08 00:18:29;;;;;;;3.90;2.20;;;;;;;9.83;56.15;98880.69;689593;28;1519;-79
2022/04/08 00:18:50;;;;;;;2.50;2.30;;;;;;;9.85;56.34;98902.41;684937;28;1040;-80
2022/04/08 00:19:11;;;;;;;2.70;2.10;;;;;;;9.78;56.32;98900.69;684521;28;1061;-79
2022/04/08 00:19:32;;;;;;;2.70;2.13;;;;;;;9.78;56.18;98903.28;684122;28;1307;-79
2022/04/08 00:19:52;;;;;;;4.85;2.30;;;;;;;9.63;56.29;98885.03;690398;28;1203;-80
2022/04/08 00:20:13;;;;;;;7.70;2.45;;;;;;;9.66;56.64;98900.66;695795;28;1160;-80
2022/04/08 00:20:35;;;;;;;7.93;2.45;;;;;;;9.69;56.61;98901.53;695890;28;925;-80
2022/04/08 00:20:56;;;;;;;7.40;2.40;;;;;;;9.72;56.57;98900.66;692984;28;1004;-80
2022/04/08 00:21:17;;;;;;;4.90;2.38;;;;;;;9.86;56.05;98904.16;690321;28;1031;-79
2022/04/08 00:21:37;;;;;;;5.80;2.28;;;;;;;9.74;56.32;98888.50;684961;28;1162;-79
2022/04/08 00:21:58;;;;;;;4.30;2.30;;;;;;;9.66;56.22;98898.94;688542;28;1436;-79
2022/04/08 00:22:20;;;;;;;4.10;2.30;;;;;;;9.84;55.80;98899.81;690226;28;1151;-80
2022/04/08 00:22:42;;;;;;;3.00;2.13;;;;;;;9.72;56.35;98905.88;690268;28;1328;-80
2022/04/08 00:23:03;;;;;;;2.58;2.13;;;;;;;9.76;56.54;98905.00;692605;28;1709;-80
2022/04/08 00:23:24;;;;;;;3.58;2.17;;;;;;;9.85;56.12;98896.34;690136;28;977;-79
2022/04/08 00:23:45;;;;;;;4.10;2.20;;;;;;;9.81;55.79;98926.72;694039;28;885;-79
2022/04/08 00:24:07;;;;;;;4.75;2.15;;;;;;;9.83;56.03;98924.97;693090;28;1028;-79
2022/04/08 00:24:27;;;;;;;4.30;2.05;;;;;;;9.85;55.89;98897.19;696382;28;959;-79
2022/04/08 00:24:48;;;;;;;3.50;2.05;;;;;;;9.86;56.13;98888.53;693680;28;1262;-79
2022/04/08 00:25:09;;;;;;;2.90;2.00;;;;;;;9.91;56.09;98895.47;693246;28;1123;-79
2022/04/08 00:25:30;;;;;;;3.33;2.10;;;;;;;9.92;55.79;98902.41;687794;28;1650;-79
2022/04/08 00:25:51;;;;;;;3.58;2.00;;;;;;;9.95;55.65;98889.41;693903;28;1736;-79
2022/04/08 00:26:11;;;;;;;4.05;2.08;;;;;;;9.92;55.69;98902.41;694243;28;1428;-80
2022/04/08 00:26:32;;;;;;;2.90;2.00;;;;;;;9.83;55.81;98895.47;690933;28;1009;-80
2022/04/08 00:26:53;;;;;;;3.13;2.05;;;;;;;9.90;55.89;98914.56;693279;28;1000;-79
2022/04/08 00:27:13;;;;;;;3.70;2.00;;;;;;;9.82;55.93;98897.19;688182;28;1281;-80
2022/04/08 00:27:34;;;;;;;3.97;2.00;;;;;;;9.86;55.77;98904.16;691010;28;772;-79
2022/04/08 00:27:54;;;;;;;4.13;2.20;;;;;;;10.00;55.68;98926.72;688134;28;1045;-79
2022/04/08 00:28:22;;;;;;;3.72;2.28;;;;;;;9.83;55.84;98924.97;690746;28;1621;-79
2022/04/08 00:28:43;;;;;;;3.95;2.13;;;;;;;9.81;55.87;98918.91;685398;28;1355;-79
2022/04/08 00:29:03;;;;;;;4.13;2.13;;;;;;;9.72;55.82;98940.59;686388;28;1663;-80
2022/04/08 00:29:24;;;;;;;5.50;2.50;;;;;;;9.79;55.94;98915.44;687496;28;1084;-80
2022/04/08 00:29:44;;;;;;;5.90;2.50;;;;;;;9.74;56.15;98906.75;688174;28;1568;-80
2022/04/08 00:30:06;;;;;;;5.40;2.60;;;;;;;9.79;55.97;98907.63;691957;28;1165;-80
2022/04/08 00:30:26;;;;;;;3.22;2.30;;;;;;;9.79;55.86;98894.59;690871;28;953;-80
2022/04/08 00:30:48;;;;;;;2.80;2.20;;;;;;;9.69;56.06;98898.03;688180;28;1469;-80
2022/04/08 00:31:09;;;;;;;2.42;2.22;;;;;;;9.68;56.03;98898.91;688100;28;1147;-79
2022/04/08 00:31:29;;;;;;;4.05;2.40;;;;;;;9.73;56.27;98894.59;688257;28;1083;-79
2022/04/08 00:31:57;;;;;;;4.20;2.40;;;;;;;9.76;55.81;98902.41;692375;28;1267;-80
2022/04/08 00:32:24;;;;;;;3.55;2.10;;;;;;;9.80;55.48;98930.19;692052;28;1911;-80
2022/04/08 00:32:45;;;;;;;6.10;2.65;;;;;;;9.73;56.05;98918.03;690856;28;1179;-80
2022/04/08 00:33:05;;;;;;;7.93;2.67;;;;;;;9.71;55.84;98911.97;691304;28;1223;-80
2022/04/08 00:33:26;;;;;;;6.60;2.60;;;;;;;9.64;56.16;98907.59;687027;28;1495;-80
2022/04/08 00:33:47;;;;;;;6.00;1.95;;;;;;;9.62;56.06;98909.31;685248;28;1859;-80
2022/04/08 00:34:08;;;;;;;6.45;2.00;;;;;;;10.01;55.82;98924.13;686606;28;1033;-81
2022/04/08 00:34:28;;;;;;;7.40;2.10;;;;;;;10.33;54.89;98901.56;688532;28;1046;-82
2022/04/08 00:34:49;;;;;;;7.00;2.20;;;;;;;10.42;54.22;98918.94;690699;28;1560;-82
2022/04/08 00:35:09;;;;;;;6.33;2.00;;;;;;;10.06;54.64;98916.31;691196;28;1566;-82
2022/04/08 00:35:30;;;;;;;5.90;2.00;;;;;;;9.90;54.96;98910.25;688551;28;1292;-82
2022/04/08 00:35:50;;;;;;;4.10;2.07;;;;;;;9.95;55.03;98944.13;693174;28;1439;-82
2022/04/08 00:36:11;;;;;;;2.80;2.13;;;;;;;9.78;55.15;98921.53;693475;28;1498;-79
2022/04/08 00:36:31;;;;;;;3.60;2.33;;;;;;;9.65;55.36;98906.72;690747;28;961;-79
2022/04/08 00:36:53;;;;;;;4.80;2.60;;;;;;;9.76;55.54;98907.59;682488;28;1673;-79
2022/04/08 00:37:13;;;;;;;6.32;2.70;;;;;;;9.82;55.58;98902.41;685270;28;1866;-80
2022/04/08 00:37:35;;;;;;;5.25;2.47;;;;;;;9.78;55.25;98929.34;690961;28;812;-80
2022/04/08 00:37:56;;;;;;;5.75;2.05;;;;;;;9.68;55.42;98912.81;690269;28;1752;-80
2022/04/08 00:38:17;;;;;;;6.57;2.20;;;;;;;9.57;55.78;98931.03;692623;28;1737;-78
2022/04/08 00:38:38;;;;;;;7.30;2.30;;;;;;;9.69;55.61;98932.78;695987;28;1659;-79
2022/04/08 00:38:58;;;;;;;5.65;2.30;;;;;;;9.71;55.72;98918.03;695867;28;1343;-81
2022/04/08 00:39:19;;;;;;;3.67;1.90;;;;;;;9.78;55.70;98921.53;695870;28;1031;-80
2022/04/08 00:39:40;;;;;;;3.60;2.00;;;;;;;9.73;55.69;98944.94;693245;28;1189;-80
2022/04/08 00:40:00;;;;;;;2.97;1.80;;;;;;;9.71;55.49;98925.84;692996;28;1145;-79
2022/04/08 00:40:21;;;;;;;4.32;1.90;;;;;;;9.65;55.48;98927.56;693965;28;1706;-80
2022/04/08 00:40:41;;;;;;;5.45;2.00;;;;;;;9.68;55.11;98915.41;693595;28;752;-79
2022/04/08 00:41:02;;;;;;;7.00;2.10;;;;;;;9.69;55.69;98930.19;690781;28;1126;-79
2022/04/08 00:41:23;;;;;;;6.75;2.25;;;;;;;9.62;55.31;98909.31;687965;28;1191;-80
2022/04/08 00:41:45;;;;;;;5.53;2.30;;;;;;;9.54;55.78;98923.22;685572;28;1219;-79
2022/04/08 00:42:06;;;;;;;5.28;2.20;;;;;;;9.60;55.50;98922.34;690109;28;1918;-79
2022/04/08 00:42:27;;;;;;;6.07;2.00;;;;;;;9.54;55.61;98930.16;693408;28;1444;-80
2022/04/08 00:42:48;;;;;;;5.38;1.95;;;;;;;9.46;55.94;98949.22;691329;28;1180;-79
2022/04/08 00:43:12;;;;;;;6.00;2.22;;;;;;;9.53;55.82;98937.06;690620;28;1527;-80
2022/04/08 00:43:35;;;;;;;5.30;2.30;;;;;;;9.54;56.09;98933.63;687986;28;1242;-80
2022/04/08 00:43:56;;;;;;;5.25;2.20;;;;;;;9.59;55.66;98933.63;692673;28;1875;-80
2022/04/08 00:44:17;;;;;;;4.70;2.00;;;;;;;9.58;55.38;98939.69;690561;28;1958;-79
2022/04/08 00:44:37;;;;;;;7.15;2.30;;;;;;;9.65;55.71;98935.38;690666;28;1576;-80
2022/04/08 00:44:58;;;;;;;8.07;2.50;;;;;;;9.60;55.75;98938.81;691907;28;1462;-80
2022/04/08 00:45:18;;;;;;;7.67;2.50;;;;;;;9.67;55.49;98939.75;692599;28;1661;-80
2022/04/08 00:45:39;;;;;;;4.67;2.17;;;;;;;9.55;55.58;98935.38;690358;28;1320;-80
2022/04/08 00:46:04;;;;;;;3.10;1.90;;;;;;;9.55;55.55;98951.00;688803;28;1655;-79
2022/04/08 00:46:25;;;;;;;3.90;2.00;;;;;;;9.59;55.60;98939.69;685448;28;940;-80
2022/04/08 00:46:47;;;;;;;4.32;2.10;;;;;;;9.72;55.55;98942.34;683635;28;1372;-80
2022/04/08 00:47:08;;;;;;;5.70;2.20;;;;;;;9.68;55.54;98935.38;684865;28;1365;-80
2022/04/08 00:47:28;;;;;;;4.75;1.95;;;;;;;9.52;55.40;98960.53;685980;28;1711;-80
2022/04/08 00:47:49;;;;;;;5.20;1.80;;;;;;;9.65;55.36;98943.19;693564;28;1254;-82
2022/04/08 00:48:10;;;;;;;4.40;1.73;;;;;;;9.72;55.17;98960.56;690843;28;1038;-82
2022/04/08 00:48:30;;;;;;;5.40;1.90;;;;;;;9.59;55.40;98949.25;689925;28;1519;-82
2022/04/08 00:48:51;;;;;;;4.65;1.98;;;;;;;9.59;55.32;98938.84;687874;28;1175;-81
2022/04/08 00:49:12;;;;;;;4.85;2.30;;;;;;;9.60;55.55;98935.38;693463;28;961;-82
2022/04/08 00:49:36;;;;;;;4.33;2.30;;;;;;;9.66;55.39;98935.41;693134;28;1069;-82
2022/04/08 00:49:56;;;;;;;3.50;2.13;;;;;;;9.64;55.14;98938.84;690652;28;1052;-82
2022/04/08 00:50:19;;;;;;;3.50;1.80;;;;;;;9.59;55.31;98937.09;690839;28;989;-81
2022/04/08 00:50:43;;;;;;;2.92;1.80;;;;;;;9.59;55.35;98957.94;690990;28;791;-81
2022/04/08 00:51:05;;;;;;;3.60;1.70;;;;;;;9.56;55.57;98937.09;685252;28;1318;-82
2022/04/08 00:51:26;;;;;;;4.60;1.75;;;;;;;9.54;55.60;98936.25;685349;28;1404;-81
2022/04/08 00:51:48;;;;;;;6.88;1.90;;;;;;;9.58;55.67;98935.38;688049;28;1290;-82
2022/04/08 00:52:09;;;;;;;7.07;1.92;;;;;;;9.63;55.07;98942.34;690547;28;1915;-82
2022/04/08 00:52:34;;;;;;;8.85;2.00;;;;;;;9.70;55.32;98964.88;688119;28;1029;-82
2022/04/08 00:52:55;;;;;;;5.65;1.80;;;;;;;9.68;55.33;98948.41;689570;28;1334;-81
2022/04/08 00:53:16;;;;;;;3.07;1.67;;;;;;;9.59;55.33;98942.31;684770;28;1863;-81
2022/04/08 00:53:38;;;;;;;2.08;1.70;;;;;;;9.58;55.17;98956.19;685452;28;799;-81
2022/04/08 00:53:59;;;;;;;3.97;2.00;;;;;;;9.60;55.25;98949.25;684979;28;1922;-82
2022/04/08 00:54:20;;;;;;;4.03;2.08;;;;;;;9.61;55.35;98934.50;685118;28;1198;-81
2022/04/08 00:55:04;;;;;;;4.95;2.58;;;;;;;9.66;55.58;98957.94;690857;28;1209;-81
2022/04/08 00:55:25;;;;;;;4.78;1.95;;;;;;;9.57;55.53;98944.03;692252;28;1075;-82
2022/04/08 00:55:45;;;;;;;5.50;1.77;;;;;;;9.56;55.56;98967.47;688216;28;701;-82
2022/04/08 00:56:07;;;;;;;4.28;1.70;;;;;;;9.39;55.93;98954.41;689982;28;1076;-81
2022/04/08 00:56:31;;;;;;;4.25;1.95;;;;;;;9.30;56.12;98950.03;690735;28;1284;-82
2022/04/08 00:56:52;;;;;;;3.47;2.00;;;;;;;9.40;55.84;98961.34;687927;28;1446;-81
2022/04/08 00:57:13;;;;;;;5.05;1.85;;;;;;;9.42;55.63;98964.81;688067;28;1487;-83
2022/04/08 00:57:34;;;;;;;4.43;1.80;;;;;;;9.49;55.93;98966.59;688069;28;1163;-82
2022/04/08 00:57:55;;;;;;;4.78;1.80;;;;;;;9.45;55.54;98965.72;687908;28;1655;-82
2022/04/08 00:58:15;;;;;;;3.10;1.80;;;;;;;9.31;55.54;98930.94;685372;28;1159;-82
2022/04/08 00:58:37;;;;;;;4.07;1.70;;;;;;;9.22;55.81;98962.16;687861;28;1133;-82
2022/04/08 00:58:57;;;;;;;3.08;1.60;;;;;;;9.25;55.76;98951.72;689182;28;1351;-82
2022/04/08 00:59:18;;;;;;;3.92;1.65;;;;;;;9.35;55.78;98963.06;690804;28;995;-82
2022/04/08 00:59:39;;;;;;;5.17;1.87;;;;;;;9.35;55.39;98963.94;690270;28;1042;-80
2022/04/08 01:00:08;;;;;;;6.65;2.00;;;;;;;9.30;55.45;98969.13;692244;28;1618;-79
2022/04/08 01:00:38;;;;;;;6.30;1.85;;;;;;;9.46;55.10;98969.16;692380;28;1425;-80
2022/04/08 01:00:59;;;;;;;5.57;1.70;;;;;;;9.40;55.07;98957.00;688191;28;1509;-80
2022/04/08 01:01:19;;;;;;;6.03;1.70;;;;;;;9.26;55.29;98949.16;693033;28;1650;-80
2022/04/08 01:01:40;;;;;;;6.50;1.70;;;;;;;9.30;55.21;98971.72;690690;28;1353;-81
2022/04/08 01:02:01;;;;;;;7.15;1.88;;;;;;;9.26;55.01;98950.88;690585;28;1473;-83
2022/04/08 01:02:21;;;;;;;5.70;1.90;;;;;;;9.26;55.27;98985.59;690871;28;1059;-82
2022/04/08 01:02:42;;;;;;;7.87;2.20;;;;;;;9.24;55.56;98960.41;685402;28;792;-83
2022/04/08 01:03:04;;;;;;;6.53;2.00;;;;;;;9.26;55.67;98967.38;691573;28;1125;-80
2022/04/08 01:03:24;;;;;;;7.75;1.90;;;;;;;9.30;55.15;98961.31;690249;28;1477;-81
2022/04/08 01:03:46;;;;;;;5.63;1.70;;;;;;;9.25;55.01;98988.16;690652;28;1532;-80
2022/04/08 01:04:07;;;;;;;4.55;1.88;;;;;;;9.18;55.11;98969.06;695767;28;1479;-80
2022/04/08 01:04:27;;;;;;;5.50;2.10;;;;;;;9.29;55.46;98969.97;692997;28;1368;-80
2022/04/08 01:04:48;;;;;;;4.40;1.95;;;;;;;9.21;55.14;98978.63;688133;28;823;-80
2022/04/08 01:05:09;;;;;;;5.23;1.80;;;;;;;9.28;55.38;98963.03;687543;28;1095;-80
2022/04/08 01:05:34;;;;;;;3.72;1.42;;;;;;;9.25;55.00;98976.03;688033;28;1459;-80
2022/04/08 01:05:54;;;;;;;2.08;1.40;;;;;;;9.34;54.98;98972.59;689812;28;1562;-80
2022/04/08 01:06:15;;;;;;;2.53;1.50;;;;;;;9.47;54.79;98978.75;693378;28;1320;-80
2022/04/08 01:06:36;;;;;;;2.55;1.50;;;;;;;9.43;54.74;98961.34;693588;28;759;-81
2022/04/08 01:06:57;;;;;;;3.58;1.67;;;;;;;9.58;54.71;98986.56;688768;28;1282;-80
2022/04/08 01:07:17;;;;;;;4.60;1.80;;;;;;;9.43;54.04;98972.66;687496;28;1186;-80
2022/04/08 01:07:38;;;;;;;5.67;2.00;;;;;;;9.50;54.07;98975.25;685240;28;1700;-80
2022/04/08 01:07:59;;;;;;;4.70;2.08;;;;;;;9.49;53.66;98955.28;686907;28;1080;-79
2022/04/08 01:08:20;;;;;;;3.17;1.80;;;;;;;9.43;54.39;98971.75;687987;28;1257;-81
2022/04/08 01:08:41;;;;;;;2.00;1.70;;;;;;;9.46;54.35;98976.97;689799;28;1718;-80
2022/04/08 01:09:01;;;;;;;3.30;1.60;;;;;;;9.48;54.67;98970.06;686376;28;1285;-80
2022/04/08 01:09:23;;;;;;;3.40;1.70;;;;;;;9.51;54.26;98962.25;690891;28;985;-80
2022/04/08 01:09:44;;;;;;;3.53;1.77;;;;;;;9.60;54.40;98990.06;693015;28;1271;-80
2022/04/08 01:10:05;;;;;;;3.47;1.80;;;;;;;9.57;54.25;98964.88;689697;28;1552;-80
2022/04/08 01:10:26;;;;;;;3.80;1.67;;;;;;;9.49;54.20;98966.59;690723;28;1318;-80
2022/04/08 01:10:48;;;;;;;3.25;1.80;;;;;;;9.45;53.89;98973.50;687940;28;803;-80
2022/04/08 01:11:10;;;;;;;3.20;1.70;;;;;;;9.43;54.37;98982.19;687608;28;1281;-80
2022/04/08 01:11:30;;;;;;;3.00;1.77;;;;;;;9.61;53.97;98963.16;690715;28;1001;-80
2022/04/08 01:11:51;;;;;;;4.80;1.60;;;;;;;9.62;54.38;98977.03;690504;28;1470;-80
2022/04/08 01:12:12;;;;;;;3.95;1.45;;;;;;;9.58;54.16;98964.00;687687;28;1981;-80
2022/04/08 01:12:32;;;;;;;3.80;1.40;;;;;;;9.58;54.16;98974.41;690679;28;1241;-80
2022/04/08 01:13:34;;;;;;;2.70;1.70;;;;;;;9.50;54.35;98983.06;687955;28;1692;-80
2022/04/08 01:13:54;;;;;;;3.03;1.75;;;;;;;9.30;54.44;98976.94;689848;28;1727;-80
2022/04/08 01:14:18;;;;;;;3.00;1.80;;;;;;;9.20;54.59;99001.16;688001;28;1501;-80
2022/04/08 01:14:39;;;;;;;2.88;1.92;;;;;;;9.31;54.94;98975.19;693522;28;1319;-80
2022/04/08 01:15:00;;;;;;;4.63;1.83;;;;;;;9.34;54.77;98976.94;689779;28;1389;-80
2022/04/08 01:15:22;;;;;;;4.18;1.60;;;;;;;9.29;54.79;98992.53;693164;28;1692;-80
2022/04/08 01:15:44;;;;;;;6.15;1.40;;;;;;;9.30;54.55;98984.75;688391;28;1356;-80
2022/04/08 01:16:14;;;;;;;5.15;1.50;;;;;;;9.29;54.72;98975.16;689568;28;1600;-80
2022/04/08 01:16:35;;;;;;;5.85;1.90;;;;;;;9.15;54.59;98972.50;690715;28;796;-80
2022/04/08 01:16:55;;;;;;;4.40;1.80;;;;;;;9.37;54.71;99014.28;690506;28;1102;-80
2022/04/08 01:17:15;;;;;;;4.28;1.85;;;;;;;9.37;54.69;98987.34;687918;28;1103;-80
2022/04/08 01:17:36;;;;;;;5.07;1.73;;;;;;;9.38;54.53;98983.88;690719;28;1284;-80
2022/04/08 01:17:57;;;;;;;4.73;2.07;;;;;;;9.38;54.47;98983.88;690653;28;1144;-80
2022/04/08 01:18:18;;;;;;;4.10;2.00;;;;;;;9.35;54.57;98973.47;690096;28;1363;-80
2022/04/08 01:18:38;;;;;;;3.47;1.90;;;;;;;9.27;54.86;98994.28;689030;28;1372;-80
2022/04/08 01:18:59;;;;;;;5.45;1.67;;;;;;;9.30;54.58;99002.09;689505;28;1017;-80
2022/04/08 01:19:20;;;;;;;5.20;1.50;;;;;;;9.28;54.65;98994.25;687982;28;1125;-80
2022/04/08 01:19:40;;;;;;;4.40;1.30;;;;;;;9.24;54.68;99018.56;687662;28;759;-81
2022/04/08 01:20:01;;;;;;;2.45;1.27;;;;;;;9.28;54.61;98969.97;688051;28;1464;-80
2022/04/08 01:20:22;;;;;;;2.65;1.58;;;;;;;9.30;54.43;98996.88;690706;28;1087;-79
2022/04/08 01:20:43;;;;;;;3.95;1.90;;;;;;;9.44;54.22;99005.63;691276;28;775;-80
2022/04/08 01:21:12;;;;;;;3.37;1.80;;;;;;;9.38;54.16;99002.09;690767;28;1671;-81
2022/04/08 01:21:33;;;;;;;2.92;1.30;;;;;;;9.23;54.22;98989.91;692891;28;1391;-80
2022/04/08 01:21:54;;;;;;;2.95;1.40;;;;;;;9.44;54.43;99016.03;692871;28;1675;-80
2022/04/08 01:22:20;;;;;;;3.30;1.40;;;;;;;9.44;54.41;99004.75;689163;28;1662;-80
2022/04/08 01:22:40;;;;;;;4.50;1.40;;;;;;;9.32;54.25;98997.75;690853;28;867;-79
2022/04/08 01:23:01;;;;;;;4.30;1.40;;;;;;;9.36;54.13;99001.25;687662;28;1698;-80
2022/04/08 01:23:23;;;;;;;4.53;1.70;;;;;;;9.36;54.46;99011.66;695769;28;1582;-80
2022/04/08 01:23:47;;;;;;;3.33;1.50;;;;;;;9.45;54.42;99011.69;691720;28;829;-80
2022/04/08 01:24:11;;;;;;;4.72;1.50;;;;;;;9.38;54.46;99000.38;693030;28;1115;-81
2022/04/08 01:24:35;;;;;;;4.57;1.45;;;;;;;9.26;54.77;98993.38;698785;28;924;-80
2022/04/08 01:25:00;;;;;;;3.17;1.58;;;;;;;9.19;54.66;98996.81;692858;28;1365;-80
2022/04/08 01:25:21;;;;;;;3.00;1.50;;;;;;;9.29;54.91;99009.00;689468;28;1347;-79
2022/04/08 01:25:41;;;;;;;2.40;1.50;;;;;;;9.36;54.49;99011.66;685270;28;1034;-80
2022/04/08 01:26:07;;;;;;;2.60;1.60;;;;;;;9.43;54.45;99021.22;689350;28;1579;-80
2022/04/08 01:26:28;;;;;;;2.50;1.60;;;;;;;9.43;54.29;99044.66;687754;28;1139;-80
2022/04/08 01:26:51;;;;;;;3.58;1.70;;;;;;;9.35;54.13;98995.19;687794;28;1699;-80
2022/04/08 01:27:12;;;;;;;3.80;1.60;;;;;;;9.39;54.59;99003.88;690672;28;962;-80
2022/04/08 01:27:35;;;;;;;5.60;1.80;;;;;;;9.26;54.43;99014.22;696127;28;1191;-80
2022/04/08 01:27:56;;;;;;;3.72;1.60;;;;;;;9.43;54.65;99023.84;697391;28;1684;-79
2022/04/08 01:28:16;;;;;;;1.77;1.60;;;;;;;9.24;54.65;99012.47;695993;28;1056;-80
2022/04/08 01:28:38;;;;;;;2.40;1.70;;;;;;;9.25;54.36;99014.19;693001;28;1519;-80
2022/04/08 01:28:59;;;;;;;2.72;1.80;;;;;;;9.13;54.66;99015.88;684656;28;1651;-81
2022/04/08 01:29:19;;;;;;;3.07;1.80;;;;;;;9.26;54.50;99019.41;684991;28;1741;-80
2022/04/08 01:29:40;;;;;;;2.53;1.45;;;;;;;9.22;54.83;99015.03;692745;28;1068;-80
2022/04/08 01:30:01;;;;;;;3.30;1.80;;;;;;;9.23;54.53;99011.59;692797;28;1786;-80
2022/04/08 01:30:22;;;;;;;3.50;1.60;;;;;;;9.34;54.06;99002.97;688019;28;1066;-82
2022/04/08 01:30:42;;;;;;;3.37;1.70;;;;;;;9.43;54.45;99023.84;685250;28;1243;-82
2022/04/08 01:31:03;;;;;;;3.47;1.60;;;;;;;9.38;54.03;99020.31;687894;28;1201;-80
2022/04/08 01:31:24;;;;;;;3.03;1.70;;;;;;;9.34;54.42;99062.84;690028;28;1244;-80
2022/04/08 01:31:45;;;;;;;3.28;1.70;;;;;;;9.28;54.29;99030.69;690626;28;855;-81
2022/04/08 01:32:07;;;;;;;2.78;1.50;;;;;;;9.12;54.49;99014.16;695360;28;1977;-80
2022/04/08 01:32:28;;;;;;;2.50;1.50;;;;;;;9.17;54.50;99043.66;696095;28;975;-80
2022/04/08 01:32:48;;;;;;;2.90;1.33;;;;;;;9.29;54.26;99032.44;693017;28;1692;-80
2022/04/08 01:33:09;;;;;;;3.77;1.50;;;;;;;9.21;54.08;99026.31;693234;28;1260;-81
2022/04/08 01:33:29;;;;;;;4.47;1.50;;;;;;;9.18;54.41;99029.81;687610;28;1336;-80
2022/04/08 01:33:52;;;;;;;3.70;1.50;;;;;;;9.18;54.63;99039.34;690566;28;1000;-80
2022/04/08 01:34:12;;;;;;;4.60;1.60;;;;;;;9.09;54.32;99032.31;685421;28;846;-79
2022/04/08 01:34:33;;;;;;;5.18;1.70;;;;;;;9.21;54.46;99025.47;690699;28;1141;-80
2022/04/08 01:34:53;;;;;;;3.83;1.63;;;;;;;9.24;54.55;99033.28;693769;28;1478;-80
2022/04/08 01:35:14;;;;;;;2.97;1.80;;;;;;;9.16;54.38;99043.66;692617;28;1059;-80
2022/04/08 01:35:35;;;;;;;2.03;1.50;;;;;;;9.11;54.67;99058.38;693034;28;800;-82
2022/04/08 01:35:55;;;;;;;2.23;1.43;;;;;;;9.14;54.56;99016.75;687530;28;1334;-83
2022/04/08 01:36:16;;;;;;;3.50;1.42;;;;;;;9.18;54.57;99034.13;692678;28;1351;-80
2022/04/08 01:36:37;;;;;;;4.97;1.60;;;;;;;9.27;54.57;99039.38;687799;28;1487;-80
2022/04/08 01:36:57;;;;;;;4.95;1.42;;;;;;;9.36;54.55;99033.34;691592;28;2046;-80
2022/04/08 01:37:19;;;;;;;3.30;1.30;;;;;;;9.26;54.74;99034.16;688269;28;1649;-80
2022/04/08 01:37:40;;;;;;;2.33;1.40;;;;;;;9.40;54.23;99034.25;693220;28;1374;-80
2022/04/08 01:38:00;;;;;;;2.28;1.45;;;;;;;9.46;54.40;99053.34;693727;28;1011;-80
2022/04/08 01:38:21;;;;;;;2.55;1.52;;;;;;;9.32;54.36;99035.06;692322;28;1302;-80
2022/04/08 01:38:41;;;;;;;3.33;1.60;;;;;;;9.34;54.67;99042.03;687510;28;1687;-80
2022/04/08 01:39:02;;;;;;;4.10;1.48;;;;;;;9.25;54.24;99030.69;687529;28;1048;-79
2022/04/08 01:39:22;;;;;;;3.80;1.60;;;;;;;9.19;54.72;99033.25;687603;28;1331;-80
2022/04/08 01:39:43;;;;;;;2.45;1.60;;;;;;;9.21;54.69;99012.47;687168;28;1457;-80
2022/04/08 01:40:04;;;;;;;2.78;1.80;;;;;;;9.27;54.58;99039.38;687595;28;1531;-80
2022/04/08 01:40:25;;;;;;;4.78;1.80;;;;;;;9.37;54.33;99035.09;689620;28;1699;-80
2022/04/08 01:40:45;;;;;;;5.87;1.80;;;;;;;9.36;54.35;99027.28;686754;28;1340;-80
2022/04/08 01:41:06;;;;;;;5.60;1.80;;;;;;;9.43;54.65;99070.69;687979;28;1379;-80
2022/04/08 01:41:29;;;;;;;3.70;1.63;;;;;;;9.39;54.33;99032.50;682405;29;1034;-80
2022/04/08 01:41:50;;;;;;;3.53;1.50;;;;;;;9.27;54.96;99034.16;683899;28;1546;-80
2022/04/08 01:42:11;;;;;;;2.13;1.50;;;;;;;9.38;54.71;99061.97;691966;28;1201;-80
2022/04/08 01:42:31;;;;;;;2.33;1.42;;;;;;;9.28;54.84;99041.13;693146;28;1008;-80
2022/04/08 01:42:55;;;;;;;3.20;1.70;;;;;;;9.27;54.66;99046.34;689772;28;1658;-80
2022/04/08 01:43:15;;;;;;;4.18;1.60;;;;;;;9.30;54.78;99065.44;687576;28;1609;-79
2022/04/08 01:43:36;;;;;;;3.77;1.40;;;;;;;9.34;54.57;99045.47;685417;28;792;-80
2022/04/08 01:43:57;;;;;;;5.43;1.50;;;;;;;9.28;55.00;99041.13;688307;28;1330;-82
2022/04/08 01:44:18;;;;;;;5.10;1.90;;;;;;;9.31;54.82;99051.56;690834;28;1235;-80
2022/04/08 01:44:39;;;;;;;3.43;1.67;;;;;;;9.23;54.95;99037.63;689970;28;1450;-80
2022/04/08 01:45:00;;;;;;;3.72;1.80;;;;;;;9.23;55.18;99052.38;688707;28;1773;-80